Terminal Aerodrome Forecast
Issued by NWS

Home | Current Version | Previous Version | Text Only | Print | Product List | Glossary On
Versions: 1 2 3 4 5 6 7 8 9 10 11 12 13 14
000
FTUS45 KTFX 281700 RRA
TAFHVR
TAF
KHVR 281743Z 2818/0118 28009KT P6SM SCT030 BKN060
      TEMPO 2818/2820 BKN030
     FM282000 27008KT P6SM SCT060 BKN120
     FM010100 26009KT P6SM SCT040 BKN080
     FM010600 25007KT P6SM VCSH SCT025 BKN040
     FM011300 22010KT P6SM SCT070=

USA.gov is the U.S. government's official web portal to all federal, state and local government web resources and services.